sensor_id;sensor_type;location;lat;lon;timestamp;P1;durP1;ratioP1;P2;durP2;ratioP2
68234;SDS011;55052;52.056;5.296;2024-03-23T00:55:54;26.95;;;9.48;;
68234;SDS011;55052;52.056;5.296;2024-03-23T00:58:20;29.90;;;10.07;;
68234;SDS011;55052;52.056;5.296;2024-03-23T01:00:46;24.83;;;9.60;;
68234;SDS011;55052;52.056;5.296;2024-03-23T01:03:11;35.00;;;10.30;;
68234;SDS011;55052;52.056;5.296;2024-03-23T01:05:37;19.38;;;8.80;;
68234;SDS011;55052;52.056;5.296;2024-03-23T01:08:03;29.73;;;8.75;;
68234;SDS011;55052;52.056;5.296;2024-03-23T01:10:29;26.88;;;9.27;;
68234;SDS011;55052;52.056;5.296;2024-03-23T01:12:55;26.17;;;9.68;;
68234;SDS011;55052;52.056;5.296;2024-03-23T01:15:21;29.60;;;9.55;;
68234;SDS011;55052;52.056;5.296;2024-03-23T01:17:47;28.25;;;9.98;;
68234;SDS011;55052;52.056;5.296;2024-03-23T01:20:13;25.50;;;10.13;;
68234;SDS011;55052;52.056;5.296;2024-03-23T01:22:39;30.95;;;9.15;;
68234;SDS011;55052;52.056;5.296;2024-03-23T01:25:05;22.92;;;9.20;;
68234;SDS011;55052;52.056;5.296;2024-03-23T01:27:31;29.80;;;9.48;;
68234;SDS011;55052;52.056;5.296;2024-03-23T01:29:57;30.88;;;9.77;;
68234;SDS011;55052;52.056;5.296;2024-03-23T01:32:23;27.73;;;9.75;;
68234;SDS011;55052;52.056;5.296;2024-03-23T01:34:48;36.58;;;10.73;;
68234;SDS011;55052;52.056;5.296;2024-03-23T01:37:14;21.27;;;9.20;;
68234;SDS011;55052;52.056;5.296;2024-03-23T01:39:40;27.88;;;9.63;;
68234;SDS011;55052;52.056;5.296;2024-03-23T01:42:06;32.22;;;10.48;;
68234;SDS011;55052;52.056;5.296;2024-03-23T01:44:32;25.80;;;9.30;;
68234;SDS011;55052;52.056;5.296;2024-03-23T01:46:57;21.40;;;8.52;;
68234;SDS011;55052;52.056;5.296;2024-03-23T01:49:24;26.60;;;9.65;;
68234;SDS011;55052;52.056;5.296;2024-03-23T01:51:50;25.48;;;9.35;;
68234;SDS011;55052;52.056;5.296;2024-03-23T01:54:16;24.13;;;9.65;;
68234;SDS011;55052;52.056;5.296;2024-03-23T01:56:42;23.42;;;10.20;;
68234;SDS011;55052;52.056;5.296;2024-03-23T01:59:07;24.15;;;9.68;;
68234;SDS011;55052;52.056;5.296;2024-03-23T02:01:36;26.73;;;10.27;;
68234;SDS011;55052;52.056;5.296;2024-03-23T02:04:02;20.23;;;9.25;;
68234;SDS011;55052;52.056;5.296;2024-03-23T02:06:28;22.00;;;9.07;;
68234;SDS011;55052;52.056;5.296;2024-03-23T02:08:55;24.83;;;9.15;;
68234;SDS011;55052;52.056;5.296;2024-03-23T02:11:21;26.83;;;9.57;;
68234;SDS011;55052;52.056;5.296;2024-03-23T02:13:47;23.13;;;9.65;;
68234;SDS011;55052;52.056;5.296;2024-03-23T02:16:13;29.25;;;8.63;;
68234;SDS011;55052;52.056;5.296;2024-03-23T02:18:39;25.63;;;9.35;;
68234;SDS011;55052;52.056;5.296;2024-03-23T02:21:05;23.13;;;9.05;;
68234;SDS011;55052;52.056;5.296;2024-03-23T02:23:31;23.73;;;8.18;;
68234;SDS011;55052;52.056;5.296;2024-03-23T02:25:57;24.02;;;9.15;;
68234;SDS011;55052;52.056;5.296;2024-03-23T02:28:22;26.67;;;9.25;;
68234;SDS011;55052;52.056;5.296;2024-03-23T02:30:49;27.33;;;9.00;;
68234;SDS011;55052;52.056;5.296;2024-03-23T02:33:15;24.02;;;8.60;;
68234;SDS011;55052;52.056;5.296;2024-03-23T02:35:41;25.13;;;8.85;;
68234;SDS011;55052;52.056;5.296;2024-03-23T02:38:07;27.13;;;8.98;;
68234;SDS011;55052;52.056;5.296;2024-03-23T02:40:33;23.02;;;9.00;;
68234;SDS011;55052;52.056;5.296;2024-03-23T02:42:59;23.95;;;8.80;;
68234;SDS011;55052;52.056;5.296;2024-03-23T02:45:25;21.35;;;8.05;;
68234;SDS011;55052;52.056;5.296;2024-03-23T02:47:51;19.13;;;7.18;;
68234;SDS011;55052;52.056;5.296;2024-03-23T02:50:18;19.27;;;7.55;;
68234;SDS011;55052;52.056;5.296;2024-03-23T02:52:44;24.60;;;7.65;;
68234;SDS011;55052;52.056;5.296;2024-03-23T02:55:10;19.10;;;7.75;;
68234;SDS011;55052;52.056;5.296;2024-03-23T02:57:36;22.13;;;8.65;;
68234;SDS011;55052;52.056;5.296;2024-03-23T03:00:02;22.55;;;7.90;;
68234;SDS011;55052;52.056;5.296;2024-03-23T03:02:28;19.55;;;7.93;;
68234;SDS011;55052;52.056;5.296;2024-03-23T03:04:54;20.70;;;7.45;;
68234;SDS011;55052;52.056;5.296;2024-03-23T03:07:20;22.20;;;7.30;;
68234;SDS011;55052;52.056;5.296;2024-03-23T03:09:46;17.60;;;7.15;;
68234;SDS011;55052;52.056;5.296;2024-03-23T03:12:12;18.25;;;7.22;;
68234;SDS011;55052;52.056;5.296;2024-03-23T03:14:38;20.75;;;6.85;;
68234;SDS011;55052;52.056;5.296;2024-03-23T03:17:03;21.80;;;7.65;;
68234;SDS011;55052;52.056;5.296;2024-03-23T03:19:29;20.45;;;6.60;;
68234;SDS011;55052;52.056;5.296;2024-03-23T03:21:55;20.40;;;7.20;;
68234;SDS011;55052;52.056;5.296;2024-03-23T03:24:21;16.92;;;7.05;;
68234;SDS011;55052;52.056;5.296;2024-03-23T03:26:47;15.57;;;6.70;;
68234;SDS011;55052;52.056;5.296;2024-03-23T03:29:13;19.60;;;6.30;;
68234;SDS011;55052;52.056;5.296;2024-03-23T03:31:39;17.95;;;7.15;;
68234;SDS011;55052;52.056;5.296;2024-03-23T03:34:05;17.10;;;6.22;;
68234;SDS011;55052;52.056;5.296;2024-03-23T03:36:30;17.75;;;6.05;;
68234;SDS011;55052;52.056;5.296;2024-03-23T03:38:56;18.63;;;6.78;;
68234;SDS011;55052;52.056;5.296;2024-03-23T03:41:22;19.65;;;6.47;;
68234;SDS011;55052;52.056;5.296;2024-03-23T03:43:48;17.58;;;5.90;;
68234;SDS011;55052;52.056;5.296;2024-03-23T03:46:14;15.30;;;6.15;;
68234;SDS011;55052;52.056;5.296;2024-03-23T03:48:40;16.23;;;5.75;;
68234;SDS011;55052;52.056;5.296;2024-03-23T03:51:05;22.27;;;6.40;;
68234;SDS011;55052;52.056;5.296;2024-03-23T03:53:31;13.02;;;5.70;;
68234;SDS011;55052;52.056;5.296;2024-03-23T03:56:01;18.50;;;5.55;;
68234;SDS011;55052;52.056;5.296;2024-03-23T03:58:27;19.00;;;5.95;;
68234;SDS011;55052;52.056;5.296;2024-03-23T04:00:53;13.70;;;5.07;;
68234;SDS011;55052;52.056;5.296;2024-03-23T04:03:19;13.55;;;5.78;;
68234;SDS011;55052;52.056;5.296;2024-03-23T04:05:52;10.43;;;5.28;;
68234;SDS011;55052;52.056;5.296;2024-03-23T04:08:19;12.27;;;5.95;;
68234;SDS011;55052;52.056;5.296;2024-03-23T04:10:45;13.40;;;6.40;;
68234;SDS011;55052;52.056;5.296;2024-03-23T04:13:11;12.63;;;6.65;;
68234;SDS011;55052;52.056;5.296;2024-03-23T04:15:38;14.93;;;6.38;;
68234;SDS011;55052;52.056;5.296;2024-03-23T04:18:04;13.10;;;6.43;;
68234;SDS011;55052;52.056;5.296;2024-03-23T04:20:30;11.52;;;5.95;;
68234;SDS011;55052;52.056;5.296;2024-03-23T04:22:56;13.02;;;5.85;;
68234;SDS011;55052;52.056;5.296;2024-03-23T04:25:21;14.48;;;6.10;;
68234;SDS011;55052;52.056;5.296;2024-03-23T04:27:47;12.43;;;5.88;;
68234;SDS011;55052;52.056;5.296;2024-03-23T04:30:13;8.95;;;5.20;;
68234;SDS011;55052;52.056;5.296;2024-03-23T04:32:40;11.65;;;5.70;;
68234;SDS011;55052;52.056;5.296;2024-03-23T04:35:07;10.43;;;5.93;;
68234;SDS011;55052;52.056;5.296;2024-03-23T04:37:36;12.23;;;5.55;;
68234;SDS011;55052;52.056;5.296;2024-03-23T04:40:03;10.73;;;4.53;;
68234;SDS011;55052;52.056;5.296;2024-03-23T04:42:29;10.75;;;5.57;;
68234;SDS011;55052;52.056;5.296;2024-03-23T04:44:56;11.43;;;4.97;;
68234;SDS011;55052;52.056;5.296;2024-03-23T04:47:22;13.40;;;4.60;;
68234;SDS011;55052;52.056;5.296;2024-03-23T04:49:48;15.05;;;4.85;;
68234;SDS011;55052;52.056;5.296;2024-03-23T04:52:14;12.10;;;5.28;;
68234;SDS011;55052;52.056;5.296;2024-03-23T04:54:41;11.27;;;4.43;;
68234;SDS011;55052;52.056;5.296;2024-03-23T04:57:07;8.82;;;4.45;;
68234;SDS011;55052;52.056;5.296;2024-03-23T04:59:33;12.15;;;4.63;;
68234;SDS011;55052;52.056;5.296;2024-03-23T05:01:59;13.02;;;4.80;;
68234;SDS011;55052;52.056;5.296;2024-03-23T05:04:25;8.52;;;4.50;;
68234;SDS011;55052;52.056;5.296;2024-03-23T05:06:51;9.07;;;4.50;;
68234;SDS011;55052;52.056;5.296;2024-03-23T05:09:17;9.30;;;4.35;;
68234;SDS011;55052;52.056;5.296;2024-03-23T05:11:43;10.65;;;4.20;;
68234;SDS011;55052;52.056;5.296;2024-03-23T05:14:10;10.73;;;4.40;;
68234;SDS011;55052;52.056;5.296;2024-03-23T05:16:39;13.65;;;4.00;;
68234;SDS011;55052;52.056;5.296;2024-03-23T05:19:06;7.85;;;4.57;;
68234;SDS011;55052;52.056;5.296;2024-03-23T05:21:31;9.23;;;4.40;;
68234;SDS011;55052;52.056;5.296;2024-03-23T05:23:57;8.52;;;4.30;;
68234;SDS011;55052;52.056;5.296;2024-03-23T05:26:23;9.65;;;4.75;;
68234;SDS011;55052;52.056;5.296;2024-03-23T05:28:49;9.02;;;4.72;;
68234;SDS011;55052;52.056;5.296;2024-03-23T05:31:25;8.85;;;4.35;;
68234;SDS011;55052;52.056;5.296;2024-03-23T05:33:51;9.25;;;4.07;;
68234;SDS011;55052;52.056;5.296;2024-03-23T05:36:17;11.70;;;4.35;;
68234;SDS011;55052;52.056;5.296;2024-03-23T05:38:43;9.07;;;4.18;;
68234;SDS011;55052;52.056;5.296;2024-03-23T05:41:09;10.80;;;4.68;;
68234;SDS011;55052;52.056;5.296;2024-03-23T05:43:35;11.25;;;4.20;;
68234;SDS011;55052;52.056;5.296;2024-03-23T05:46:01;10.35;;;3.83;;
68234;SDS011;55052;52.056;5.296;2024-03-23T05:48:28;14.52;;;4.13;;
68234;SDS011;55052;52.056;5.296;2024-03-23T05:50:55;12.65;;;3.92;;
68234;SDS011;55052;52.056;5.296;2024-03-23T05:53:21;16.10;;;4.38;;
68234;SDS011;55052;52.056;5.296;2024-03-23T05:55:47;7.45;;;3.03;;
68234;SDS011;55052;52.056;5.296;2024-03-23T05:58:17;11.27;;;3.28;;
68234;SDS011;55052;52.056;5.296;2024-03-23T06:00:44;8.48;;;3.05;;
68234;SDS011;55052;52.056;5.296;2024-03-23T06:03:10;8.68;;;3.30;;
68234;SDS011;55052;52.056;5.296;2024-03-23T06:05:36;11.55;;;3.47;;
68234;SDS011;55052;52.056;5.296;2024-03-23T06:08:02;12.35;;;3.25;;
68234;SDS011;55052;52.056;5.296;2024-03-23T06:10:29;8.88;;;2.95;;
68234;SDS011;55052;52.056;5.296;2024-03-23T06:12:54;10.48;;;3.20;;
68234;SDS011;55052;52.056;5.296;2024-03-23T06:15:20;10.15;;;3.03;;
68234;SDS011;55052;52.056;5.296;2024-03-23T06:17:47;12.80;;;3.00;;
68234;SDS011;55052;52.056;5.296;2024-03-23T06:20:14;15.27;;;2.70;;
68234;SDS011;55052;52.056;5.296;2024-03-23T06:22:40;9.93;;;2.35;;
68234;SDS011;55052;52.056;5.296;2024-03-23T06:25:06;11.05;;;2.70;;
68234;SDS011;55052;52.056;5.296;2024-03-23T06:27:32;9.05;;;2.47;;
68234;SDS011;55052;52.056;5.296;2024-03-23T06:29:58;11.88;;;2.72;;
68234;SDS011;55052;52.056;5.296;2024-03-23T06:32:25;8.32;;;2.40;;
68234;SDS011;55052;52.056;5.296;2024-03-23T06:34:51;11.93;;;2.83;;
68234;SDS011;55052;52.056;5.296;2024-03-23T06:37:17;16.00;;;3.05;;
68234;SDS011;55052;52.056;5.296;2024-03-23T06:39:43;16.30;;;3.63;;
68234;SDS011;55052;52.056;5.296;2024-03-23T06:42:11;10.25;;;2.50;;
68234;SDS011;55052;52.056;5.296;2024-03-23T06:44:37;13.48;;;3.10;;
68234;SDS011;55052;52.056;5.296;2024-03-23T06:47:03;16.52;;;3.00;;
68234;SDS011;55052;52.056;5.296;2024-03-23T06:49:29;10.30;;;3.03;;
68234;SDS011;55052;52.056;5.296;2024-03-23T06:51:55;8.82;;;2.60;;
68234;SDS011;55052;52.056;5.296;2024-03-23T06:54:21;10.15;;;2.90;;
68234;SDS011;55052;52.056;5.296;2024-03-23T06:56:46;9.45;;;2.90;;
68234;SDS011;55052;52.056;5.296;2024-03-23T06:59:12;11.93;;;3.17;;
68234;SDS011;55052;52.056;5.296;2024-03-23T07:01:38;15.55;;;3.08;;
68234;SDS011;55052;52.056;5.296;2024-03-23T07:04:04;13.20;;;3.35;;
68234;SDS011;55052;52.056;5.296;2024-03-23T07:06:30;16.27;;;3.80;;
68234;SDS011;55052;52.056;5.296;2024-03-23T07:08:56;10.73;;;3.20;;
68234;SDS011;55052;52.056;5.296;2024-03-23T07:11:22;6.65;;;2.85;;
68234;SDS011;55052;52.056;5.296;2024-03-23T07:13:49;13.13;;;3.40;;
68234;SDS011;55052;52.056;5.296;2024-03-23T07:16:16;13.95;;;3.92;;
68234;SDS011;55052;52.056;5.296;2024-03-23T07:18:42;15.52;;;3.35;;
68234;SDS011;55052;52.056;5.296;2024-03-23T07:21:08;11.93;;;3.05;;
68234;SDS011;55052;52.056;5.296;2024-03-23T07:23:34;14.88;;;3.78;;
68234;SDS011;55052;52.056;5.296;2024-03-23T07:26:00;17.67;;;3.42;;
68234;SDS011;55052;52.056;5.296;2024-03-23T07:28:28;10.05;;;3.58;;
68234;SDS011;55052;52.056;5.296;2024-03-23T07:31:07;12.70;;;3.65;;
68234;SDS011;55052;52.056;5.296;2024-03-23T07:33:34;12.23;;;3.22;;
68234;SDS011;55052;52.056;5.296;2024-03-23T07:36:01;12.40;;;2.85;;
68234;SDS011;55052;52.056;5.296;2024-03-23T07:38:28;11.95;;;2.90;;
68234;SDS011;55052;52.056;5.296;2024-03-23T07:41:04;9.35;;;2.83;;
68234;SDS011;55052;52.056;5.296;2024-03-23T07:43:31;14.15;;;3.03;;
68234;SDS011;55052;52.056;5.296;2024-03-23T07:45:57;11.43;;;3.65;;
68234;SDS011;55052;52.056;5.296;2024-03-23T07:48:24;13.02;;;2.47;;
68234;SDS011;55052;52.056;5.296;2024-03-23T07:53:25;11.63;;;2.63;;
68234;SDS011;55052;52.056;5.296;2024-03-23T07:55:59;12.73;;;2.95;;
68234;SDS011;55052;52.056;5.296;2024-03-23T07:58:30;10.93;;;2.75;;
68234;SDS011;55052;52.056;5.296;2024-03-23T08:01:02;16.00;;;2.90;;
68234;SDS011;55052;52.056;5.296;2024-03-23T08:03:36;16.20;;;2.70;;
68234;SDS011;55052;52.056;5.296;2024-03-23T08:06:09;14.40;;;3.50;;
68234;SDS011;55052;52.056;5.296;2024-03-23T08:08:35;13.20;;;2.53;;
68234;SDS011;55052;52.056;5.296;2024-03-23T08:11:02;12.68;;;2.78;;
68234;SDS011;55052;52.056;5.296;2024-03-23T08:13:28;14.55;;;3.15;;
68234;SDS011;55052;52.056;5.296;2024-03-23T08:15:58;13.75;;;2.92;;
68234;SDS011;55052;52.056;5.296;2024-03-23T08:18:25;11.93;;;2.60;;
68234;SDS011;55052;52.056;5.296;2024-03-23T08:20:58;12.63;;;2.45;;
68234;SDS011;55052;52.056;5.296;2024-03-23T08:23:28;10.10;;;2.80;;
68234;SDS011;55052;52.056;5.296;2024-03-23T08:25:59;8.40;;;2.72;;
68234;SDS011;55052;52.056;5.296;2024-03-23T08:28:26;15.52;;;2.95;;
68234;SDS011;55052;52.056;5.296;2024-03-23T08:30:52;9.27;;;2.70;;
68234;SDS011;55052;52.056;5.296;2024-03-23T08:33:18;11.25;;;2.67;;
68234;SDS011;55052;52.056;5.296;2024-03-23T08:38:43;13.65;;;2.42;;
68234;SDS011;55052;52.056;5.296;2024-03-23T08:41:09;10.23;;;2.67;;
68234;SDS011;55052;52.056;5.296;2024-03-23T08:43:36;9.68;;;2.15;;
68234;SDS011;55052;52.056;5.296;2024-03-23T08:46:11;11.40;;;2.58;;
68234;SDS011;55052;52.056;5.296;2024-03-23T08:48:39;9.68;;;2.25;;
68234;SDS011;55052;52.056;5.296;2024-03-23T08:51:07;7.35;;;2.30;;
68234;SDS011;55052;52.056;5.296;2024-03-23T08:53:34;10.18;;;2.10;;
68234;SDS011;55052;52.056;5.296;2024-03-23T08:56:00;7.90;;;2.45;;
68234;SDS011;55052;52.056;5.296;2024-03-23T08:58:30;14.38;;;2.97;;
68234;SDS011;55052;52.056;5.296;2024-03-23T09:01:03;10.57;;;2.60;;
68234;SDS011;55052;52.056;5.296;2024-03-23T09:03:30;8.30;;;2.05;;
68234;SDS011;55052;52.056;5.296;2024-03-23T09:05:56;10.98;;;2.42;;
68234;SDS011;55052;52.056;5.296;2024-03-23T09:08:23;9.38;;;2.15;;
68234;SDS011;55052;52.056;5.296;2024-03-23T09:10:49;12.65;;;1.90;;
68234;SDS011;55052;52.056;5.296;2024-03-23T09:13:15;10.55;;;2.25;;
68234;SDS011;55052;52.056;5.296;2024-03-23T09:15:51;12.63;;;2.35;;
68234;SDS011;55052;52.056;5.296;2024-03-23T09:18:21;9.65;;;2.38;;
68234;SDS011;55052;52.056;5.296;2024-03-23T09:20:47;10.00;;;2.40;;
68234;SDS011;55052;52.056;5.296;2024-03-23T09:23:13;7.88;;;2.20;;
68234;SDS011;55052;52.056;5.296;2024-03-23T09:25:40;8.98;;;2.20;;
68234;SDS011;55052;52.056;5.296;2024-03-23T09:28:06;7.32;;;2.08;;
68234;SDS011;55052;52.056;5.296;2024-03-23T09:30:34;13.30;;;2.40;;
68234;SDS011;55052;52.056;5.296;2024-03-23T09:33:00;8.73;;;2.10;;
68234;SDS011;55052;52.056;5.296;2024-03-23T09:35:26;9.07;;;2.28;;
68234;SDS011;55052;52.056;5.296;2024-03-23T09:37:52;11.80;;;2.83;;
68234;SDS011;55052;52.056;5.296;2024-03-23T09:40:18;11.02;;;2.42;;
68234;SDS011;55052;52.056;5.296;2024-03-23T09:42:49;10.20;;;2.20;;
68234;SDS011;55052;52.056;5.296;2024-03-23T09:45:26;10.90;;;2.20;;
68234;SDS011;55052;52.056;5.296;2024-03-23T09:47:54;17.13;;;2.75;;
68234;SDS011;55052;52.056;5.296;2024-03-23T09:50:21;9.48;;;2.50;;
68234;SDS011;55052;52.056;5.296;2024-03-23T09:52:47;14.27;;;2.42;;
68234;SDS011;55052;52.056;5.296;2024-03-23T09:55:13;8.48;;;2.42;;
68234;SDS011;55052;52.056;5.296;2024-03-23T09:57:39;13.13;;;2.78;;
68234;SDS011;55052;52.056;5.296;2024-03-23T10:00:06;6.18;;;2.25;;
68234;SDS011;55052;52.056;5.296;2024-03-23T10:02:34;10.93;;;2.50;;
68234;SDS011;55052;52.056;5.296;2024-03-23T10:05:00;6.97;;;2.17;;
68234;SDS011;55052;52.056;5.296;2024-03-23T10:07:27;9.75;;;2.30;;
68234;SDS011;55052;52.056;5.296;2024-03-23T10:09:54;10.98;;;2.22;;
68234;SDS011;55052;52.056;5.296;2024-03-23T10:12:20;12.95;;;2.35;;
68234;SDS011;55052;52.056;5.296;2024-03-23T10:14:46;11.82;;;2.33;;
68234;SDS011;55052;52.056;5.296;2024-03-23T10:17:14;11.95;;;2.28;;
68234;SDS011;55052;52.056;5.296;2024-03-23T10:19:44;12.23;;;2.45;;
68234;SDS011;55052;52.056;5.296;2024-03-23T10:22:16;15.00;;;2.83;;
68234;SDS011;55052;52.056;5.296;2024-03-23T10:24:46;7.97;;;2.03;;
68234;SDS011;55052;52.056;5.296;2024-03-23T10:27:18;6.72;;;1.80;;
68234;SDS011;55052;52.056;5.296;2024-03-23T10:29:48;13.35;;;2.33;;
68234;SDS011;55052;52.056;5.296;2024-03-23T10:32:18;8.32;;;2.33;;
68234;SDS011;55052;52.056;5.296;2024-03-23T10:34:45;6.95;;;2.10;;
68234;SDS011;55052;52.056;5.296;2024-03-23T10:37:11;9.98;;;2.15;;
68234;SDS011;55052;52.056;5.296;2024-03-23T10:39:39;12.68;;;2.30;;
68234;SDS011;55052;52.056;5.296;2024-03-23T10:42:09;10.27;;;2.53;;
68234;SDS011;55052;52.056;5.296;2024-03-23T10:44:38;6.22;;;1.98;;
68234;SDS011;55052;52.056;5.296;2024-03-23T10:47:04;6.80;;;1.60;;
68234;SDS011;55052;52.056;5.296;2024-03-23T10:49:34;4.22;;;1.58;;
68234;SDS011;55052;52.056;5.296;2024-03-23T10:52:03;4.75;;;1.30;;
68234;SDS011;55052;52.056;5.296;2024-03-23T10:54:30;6.03;;;1.40;;
68234;SDS011;55052;52.056;5.296;2024-03-23T10:57:17;7.38;;;1.65;;
68234;SDS011;55052;52.056;5.296;2024-03-23T10:59:45;6.72;;;1.80;;
68234;SDS011;55052;52.056;5.296;2024-03-23T11:02:21;7.85;;;1.98;;
68234;SDS011;55052;52.056;5.296;2024-03-23T11:04:47;6.30;;;1.60;;
68234;SDS011;55052;52.056;5.296;2024-03-23T11:07:29;7.45;;;2.35;;
68234;SDS011;55052;52.056;5.296;2024-03-23T11:09:59;6.43;;;2.42;;
68234;SDS011;55052;52.056;5.296;2024-03-23T11:12:26;7.35;;;2.30;;
68234;SDS011;55052;52.056;5.296;2024-03-23T11:14:57;10.33;;;2.10;;
68234;SDS011;55052;52.056;5.296;2024-03-23T11:17:26;13.13;;;2.38;;
68234;SDS011;55052;52.056;5.296;2024-03-23T11:19:53;10.35;;;2.08;;
68234;SDS011;55052;52.056;5.296;2024-03-23T11:25:13;13.75;;;2.30;;
68234;SDS011;55052;52.056;5.296;2024-03-23T11:27:53;10.82;;;2.58;;
68234;SDS011;55052;52.056;5.296;2024-03-23T11:30:26;20.52;;;2.35;;
68234;SDS011;55052;52.056;5.296;2024-03-23T11:32:56;14.88;;;2.92;;
68234;SDS011;55052;52.056;5.296;2024-03-23T11:35:32;8.13;;;2.08;;
68234;SDS011;55052;52.056;5.296;2024-03-23T11:38:09;12.43;;;2.00;;
68234;SDS011;55052;52.056;5.296;2024-03-23T11:40:36;12.10;;;2.40;;
68234;SDS011;55052;52.056;5.296;2024-03-23T11:43:07;9.35;;;1.85;;
68234;SDS011;55052;52.056;5.296;2024-03-23T11:45:35;9.80;;;2.03;;
68234;SDS011;55052;52.056;5.296;2024-03-23T11:48:05;9.15;;;2.40;;
68234;SDS011;55052;52.056;5.296;2024-03-23T11:50:33;8.80;;;2.20;;
68234;SDS011;55052;52.056;5.296;2024-03-23T11:58:12;10.15;;;2.67;;
68234;SDS011;55052;52.056;5.296;2024-03-23T12:00:38;12.30;;;2.80;;
68234;SDS011;55052;52.056;5.296;2024-03-23T12:03:05;11.77;;;2.42;;
68234;SDS011;55052;52.056;5.296;2024-03-23T12:05:31;9.02;;;2.08;;
68234;SDS011;55052;52.056;5.296;2024-03-23T12:10:47;12.10;;;2.47;;
68234;SDS011;55052;52.056;5.296;2024-03-23T12:13:16;6.95;;;1.80;;
68234;SDS011;55052;52.056;5.296;2024-03-23T12:15:47;7.05;;;2.03;;
68234;SDS011;55052;52.056;5.296;2024-03-23T12:18:15;11.80;;;2.33;;
68234;SDS011;55052;52.056;5.296;2024-03-23T12:20:41;9.40;;;2.25;;
68234;SDS011;55052;52.056;5.296;2024-03-23T12:23:07;11.30;;;2.35;;
68234;SDS011;55052;52.056;5.296;2024-03-23T12:25:37;11.60;;;2.47;;
68234;SDS011;55052;52.056;5.296;2024-03-23T12:28:04;9.57;;;2.40;;
68234;SDS011;55052;52.056;5.296;2024-03-23T12:30:35;13.67;;;2.20;;
68234;SDS011;55052;52.056;5.296;2024-03-23T12:33:03;13.57;;;2.38;;
68234;SDS011;55052;52.056;5.296;2024-03-23T12:35:29;11.02;;;2.50;;
68234;SDS011;55052;52.056;5.296;2024-03-23T12:37:55;4.95;;;1.80;;
68234;SDS011;55052;52.056;5.296;2024-03-23T12:40:20;8.43;;;1.90;;
68234;SDS011;55052;52.056;5.296;2024-03-23T12:42:46;10.70;;;2.10;;
68234;SDS011;55052;52.056;5.296;2024-03-23T12:45:12;8.60;;;2.10;;
68234;SDS011;55052;52.056;5.296;2024-03-23T12:47:38;10.32;;;2.05;;
68234;SDS011;55052;52.056;5.296;2024-03-23T12:50:04;8.98;;;2.20;;
68234;SDS011;55052;52.056;5.296;2024-03-23T12:52:31;8.10;;;1.65;;
68234;SDS011;55052;52.056;5.296;2024-03-23T12:54:58;9.45;;;2.03;;
68234;SDS011;55052;52.056;5.296;2024-03-23T12:57:24;10.75;;;1.92;;
68234;SDS011;55052;52.056;5.296;2024-03-23T12:59:51;7.03;;;1.75;;
68234;SDS011;55052;52.056;5.296;2024-03-23T13:02:21;9.25;;;2.00;;
68234;SDS011;55052;52.056;5.296;2024-03-23T13:04:50;9.10;;;2.27;;
68234;SDS011;55052;52.056;5.296;2024-03-23T13:07:20;13.15;;;2.00;;
68234;SDS011;55052;52.056;5.296;2024-03-23T13:09:47;9.13;;;2.42;;
68234;SDS011;55052;52.056;5.296;2024-03-23T13:12:15;9.60;;;2.20;;
68234;SDS011;55052;52.056;5.296;2024-03-23T13:14:42;9.90;;;2.20;;
68234;SDS011;55052;52.056;5.296;2024-03-23T13:17:08;7.68;;;1.60;;
68234;SDS011;55052;52.056;5.296;2024-03-23T13:19:34;7.40;;;1.90;;
68234;SDS011;55052;52.056;5.296;2024-03-23T13:22:00;5.97;;;1.90;;
68234;SDS011;55052;52.056;5.296;2024-03-23T13:24:29;5.78;;;1.55;;
68234;SDS011;55052;52.056;5.296;2024-03-23T13:26:56;4.38;;;1.35;;
68234;SDS011;55052;52.056;5.296;2024-03-23T13:29:22;6.50;;;1.55;;
68234;SDS011;55052;52.056;5.296;2024-03-23T13:31:49;3.15;;;1.42;;
68234;SDS011;55052;52.056;5.296;2024-03-23T13:34:16;5.40;;;1.52;;
68234;SDS011;55052;52.056;5.296;2024-03-23T13:36:46;5.15;;;1.55;;
68234;SDS011;55052;52.056;5.296;2024-03-23T13:39:13;5.23;;;1.47;;
68234;SDS011;55052;52.056;5.296;2024-03-23T13:41:41;6.47;;;1.73;;
68234;SDS011;55052;52.056;5.296;2024-03-23T13:44:09;6.72;;;1.75;;
68234;SDS011;55052;52.056;5.296;2024-03-23T13:46:36;2.40;;;1.10;;
68234;SDS011;55052;52.056;5.296;2024-03-23T13:49:03;4.03;;;1.23;;
68234;SDS011;55052;52.056;5.296;2024-03-23T13:51:30;4.60;;;1.50;;
68234;SDS011;55052;52.056;5.296;2024-03-23T13:53:56;2.83;;;1.30;;
68234;SDS011;55052;52.056;5.296;2024-03-23T13:56:22;3.47;;;1.60;;
68234;SDS011;55052;52.056;5.296;2024-03-23T13:58:48;5.22;;;1.30;;
68234;SDS011;55052;52.056;5.296;2024-03-23T14:01:14;5.85;;;1.48;;
68234;SDS011;55052;52.056;5.296;2024-03-23T14:03:41;8.00;;;1.90;;
68234;SDS011;55052;52.056;5.296;2024-03-23T14:06:08;7.15;;;1.88;;
68234;SDS011;55052;52.056;5.296;2024-03-23T14:08:35;12.05;;;1.80;;
68234;SDS011;55052;52.056;5.296;2024-03-23T14:11:07;9.63;;;2.47;;
68234;SDS011;55052;52.056;5.296;2024-03-23T14:13:34;8.48;;;2.22;;
68234;SDS011;55052;52.056;5.296;2024-03-23T14:16:00;7.00;;;1.88;;
68234;SDS011;55052;52.056;5.296;2024-03-23T14:18:27;9.18;;;2.03;;
68234;SDS011;55052;52.056;5.296;2024-03-23T14:20:56;6.88;;;1.88;;
68234;SDS011;55052;52.056;5.296;2024-03-23T14:23:27;7.28;;;1.92;;
68234;SDS011;55052;52.056;5.296;2024-03-23T14:25:57;8.38;;;2.13;;
68234;SDS011;55052;52.056;5.296;2024-03-23T14:28:23;5.13;;;1.80;;
68234;SDS011;55052;52.056;5.296;2024-03-23T14:30:50;7.60;;;2.00;;
68234;SDS011;55052;52.056;5.296;2024-03-23T14:33:16;9.20;;;2.13;;
68234;SDS011;55052;52.056;5.296;2024-03-23T14:35:43;7.57;;;1.80;;
68234;SDS011;55052;52.056;5.296;2024-03-23T14:38:17;8.90;;;1.80;;
68234;SDS011;55052;52.056;5.296;2024-03-23T14:40:43;8.68;;;1.90;;
68234;SDS011;55052;52.056;5.296;2024-03-23T14:43:10;7.82;;;1.88;;
68234;SDS011;55052;52.056;5.296;2024-03-23T14:45:35;8.25;;;2.22;;
68234;SDS011;55052;52.056;5.296;2024-03-23T14:48:02;11.95;;;2.08;;
68234;SDS011;55052;52.056;5.296;2024-03-23T14:50:28;8.63;;;2.28;;
68234;SDS011;55052;52.056;5.296;2024-03-23T14:52:54;11.63;;;2.10;;
68234;SDS011;55052;52.056;5.296;2024-03-23T14:55:20;10.55;;;1.83;;
68234;SDS011;55052;52.056;5.296;2024-03-23T14:57:45;10.68;;;2.35;;
68234;SDS011;55052;52.056;5.296;2024-03-23T15:00:11;5.65;;;1.45;;
68234;SDS011;55052;52.056;5.296;2024-03-23T15:02:38;6.32;;;1.75;;
68234;SDS011;55052;52.056;5.296;2024-03-23T15:05:04;6.93;;;1.40;;
68234;SDS011;55052;52.056;5.296;2024-03-23T15:07:35;5.68;;;1.40;;
68234;SDS011;55052;52.056;5.296;2024-03-23T15:10:04;6.93;;;1.50;;
68234;SDS011;55052;52.056;5.296;2024-03-23T15:12:31;4.25;;;1.58;;
68234;SDS011;55052;52.056;5.296;2024-03-23T15:15:00;2.92;;;1.40;;
68234;SDS011;55052;52.056;5.296;2024-03-23T15:17:26;5.13;;;1.45;;
68234;SDS011;55052;52.056;5.296;2024-03-23T15:19:52;5.60;;;1.50;;
68234;SDS011;55052;52.056;5.296;2024-03-23T15:22:19;5.40;;;1.52;;
68234;SDS011;55052;52.056;5.296;2024-03-23T15:24:46;7.70;;;1.77;;
68234;SDS011;55052;52.056;5.296;2024-03-23T15:27:12;6.35;;;1.52;;
68234;SDS011;55052;52.056;5.296;2024-03-23T15:29:38;4.35;;;1.55;;
68234;SDS011;55052;52.056;5.296;2024-03-23T15:32:04;7.53;;;1.70;;
68234;SDS011;55052;52.056;5.296;2024-03-23T15:34:31;8.55;;;2.15;;
68234;SDS011;55052;52.056;5.296;2024-03-23T15:36:56;7.22;;;1.70;;
68234;SDS011;55052;52.056;5.296;2024-03-23T15:39:22;4.32;;;1.73;;
68234;SDS011;55052;52.056;5.296;2024-03-23T15:41:48;6.90;;;2.10;;
68234;SDS011;55052;52.056;5.296;2024-03-23T15:44:14;6.25;;;1.77;;
68234;SDS011;55052;52.056;5.296;2024-03-23T15:46:40;9.65;;;2.20;;
68234;SDS011;55052;52.056;5.296;2024-03-23T15:49:06;8.75;;;2.28;;